Terminal Aerodrome Forecast
Issued by NWS

Home | Current Version | Previous Version | Text Only | Print | Product List | Glossary On
Versions: 1 2 3 4 5 6 7 8 9 10 11 12 13 14 15
000
FTPA31 PHFO 300800 AAA
TAFHKO
TAF AMD
PHKO 300800Z 3008/3106 36011KT P6SM BKN050
     FM301000 VRB06KT P6SM SCT050
     FM302000 22010KT P6SM FEW025 BKN050
     FM310500 05006KT P6SM SCT025 SCT050=

USA.gov is the U.S. government's official web portal to all federal, state and local government web resources and services.